Time;durP1;ratioP1;P1;durP2;ratioP2;P2;SDS_P1;SDS_P2;PMS_P1;PMS_P2;Temp;Humidity;BMP_temperature;BMP_pressure;BME280_temperature;BME280_humidity;BME280_pressure;Samples;Min_cycle;Max_cycle;Signal;HPM_P1;HPM_P2
2023/12/11 00:02:11;;;;;;;;;;;;;;;25.50;20.35;97415.41;5029597;28;19922;-80
2023/12/11 00:04:37;;;;;;;;;;;;;;;25.53;20.15;97411.69;5029133;28;19928;-80
2023/12/11 00:07:03;;;;;;;;;;;;;;;25.45;20.41;97411.16;5029340;28;20016;-80
2023/12/11 00:09:29;;;;;;;;;;;;;;;25.65;20.01;97402.38;5024821;28;19926;-80
2023/12/11 00:11:56;;;;;;;;;;;;;;;25.57;20.11;97404.69;5030143;28;19922;-80
2023/12/11 00:14:23;;;;;;;;;;;;;;;25.43;20.61;97388.34;5006026;28;20012;-80
2023/12/11 00:16:49;;;;;;;;;;;;;;;25.48;20.27;97389.78;5029526;28;19965;-81
2023/12/11 00:19:15;;;;;;;;;;;;;;;24.98;20.78;97388.81;5030360;28;20290;-81
2023/12/11 00:21:41;;;;;;;;;;;;;;;25.28;20.48;97387.28;5065566;28;20289;-80
2023/12/11 00:24:07;;;;;;;;;;;;;;;25.45;20.72;97388.69;5114327;28;20372;-80
2023/12/11 00:26:33;;;;;;;;;;;;;;;25.85;20.11;97385.91;5095167;28;19929;-81
2023/12/11 00:28:59;;;;;;;;;;;;;;;26.01;19.75;97378.00;5079502;28;20309;-81
2023/12/11 00:31:25;;;;;;;;;;;;;;;26.12;19.45;97383.22;5028004;28;19921;-80
2023/12/11 00:33:52;;;;;;;;;;;;;;;26.09;19.92;97378.50;5030719;28;19956;-80
2023/12/11 00:36:18;;;;;;;;;;;;;;;26.10;19.51;97377.28;5030264;28;19921;-81
2023/12/11 00:38:44;;;;;;;;;;;;;;;25.86;19.71;97390.28;5030342;28;19921;-83
2023/12/11 00:41:10;;;;;;;;;;;;;;;25.93;19.80;97370.31;5026296;28;20024;-83
2023/12/11 00:43:36;;;;;;;;;;;;;;;25.68;20.00;97370.50;5030157;28;19927;-81
2023/12/11 00:46:02;;;;;;;;;;;;;;;25.52;20.08;97370.75;5045060;28;19919;-81
2023/12/11 00:48:28;;;;;;;;;;;;;;;25.39;20.22;97360.34;5028141;28;19921;-81
2023/12/11 00:50:55;;;;;;;;;;;;;;;25.55;20.26;97361.41;5022392;28;20405;-81
2023/12/11 00:53:22;;;;;;;;;;;;;;;25.49;19.74;97358.41;5019967;28;20296;-81
2023/12/11 00:55:48;;;;;;;;;;;;;;;25.60;19.80;97353.13;5030216;28;19927;-81
2023/12/11 00:58:14;;;;;;;;;;;;;;;25.52;19.99;97345.47;5027589;28;20343;-81
2023/12/11 01:00:40;;;;;;;;;;;;;;;25.85;19.42;97338.88;5025261;28;19928;-81
2023/12/11 01:03:06;;;;;;;;;;;;;;;25.81;19.65;97334.66;5025705;28;19925;-81
2023/12/11 01:05:32;;;;;;;;;;;;;;;25.90;19.63;97337.50;5029234;28;19925;-81
2023/12/11 01:07:58;;;;;;;;;;;;;;;25.52;19.71;97334.22;5029370;28;19917;-81
2023/12/11 01:10:24;;;;;;;;;;;;;;;25.46;20.07;97344.50;5028360;28;19927;-81
2023/12/11 01:12:50;;;;;;;;;;;;;;;25.58;19.88;97349.25;5017142;28;19922;-81
2023/12/11 01:15:16;;;;;;;;;;;;;;;25.71;19.70;97350.72;5027420;28;19985;-81
2023/12/11 01:17:43;;;;;;;;;;;;;;;25.94;19.55;97350.16;5024183;28;19932;-81
2023/12/11 01:20:09;;;;;;;;;;;;;;;25.93;19.21;97344.97;5029241;28;19924;-81
2023/12/11 01:22:35;;;;;;;;;;;;;;;25.94;19.22;97341.72;5017548;28;19926;-81
2023/12/11 01:25:02;;;;;;;;;;;;;;;25.97;19.27;97340.00;5010601;28;19972;-81
2023/12/11 01:27:28;;;;;;;;;;;;;;;25.94;19.37;97349.38;5024810;28;20374;-81
2023/12/11 01:29:54;;;;;;;;;;;;;;;26.14;19.07;97337.75;5025109;28;19928;-81
2023/12/11 01:32:20;;;;;;;;;;;;;;;26.13;18.83;97331.31;5029397;28;19917;-81
2023/12/11 01:34:46;;;;;;;;;;;;;;;26.01;19.12;97326.56;5029642;28;19933;-81
2023/12/11 01:37:12;;;;;;;;;;;;;;;25.83;19.29;97332.16;5027737;28;20360;-82
2023/12/11 01:39:39;;;;;;;;;;;;;;;25.86;19.31;97311.53;5032323;28;19947;-81
2023/12/11 01:42:05;;;;;;;;;;;;;;;25.94;19.08;97305.16;5027398;28;19921;-81
2023/12/11 01:44:32;;;;;;;;;;;;;;;26.11;18.95;97307.72;5032262;28;20028;-81
2023/12/11 01:46:58;;;;;;;;;;;;;;;26.09;18.88;97308.16;5032053;28;19927;-82
2023/12/11 01:49:25;;;;;;;;;;;;;;;25.89;19.36;97310.59;5031971;28;19982;-82
2023/12/11 01:51:51;;;;;;;;;;;;;;;25.48;19.72;97317.50;5029127;28;20393;-82
2023/12/11 01:54:19;;;;;;;;;;;;;;;25.37;19.57;97306.63;5048027;27;19973;-82
2023/12/11 01:56:45;;;;;;;;;;;;;;;25.17;19.96;97300.63;5027225;28;19927;-82
2023/12/11 01:59:12;;;;;;;;;;;;;;;24.80;20.37;97301.63;5025819;28;20397;-82
2023/12/11 02:01:38;;;;;;;;;;;;;;;24.91;20.56;97296.41;5031893;28;19925;-82
2023/12/11 02:04:07;;;;;;;;;;;;;;;24.89;20.42;97282.03;5029048;28;20407;-82
2023/12/11 02:06:34;;;;;;;;;;;;;;;24.96;20.34;97280.97;5023924;28;20017;-81
2023/12/11 02:09:00;;;;;;;;;;;;;;;25.01;20.19;97269.94;5032165;28;19942;-81
2023/12/11 02:11:26;;;;;;;;;;;;;;;24.83;20.61;97274.66;5032566;28;19922;-82
2023/12/11 02:13:52;;;;;;;;;;;;;;;24.89;20.61;97273.63;5028579;28;19956;-82
2023/12/11 02:16:18;;;;;;;;;;;;;;;24.96;20.20;97266.94;5032929;27;19921;-81
2023/12/11 02:18:44;;;;;;;;;;;;;;;25.16;19.94;97270.16;5069327;27;19927;-82
2023/12/11 02:21:14;;;;;;;;;;;;;;;24.96;19.77;97267.72;5054824;27;19913;-82
2023/12/11 02:23:45;;;;;;;;;;;;;;;24.43;20.36;97261.28;5032674;28;19921;-82
2023/12/11 02:26:12;;;;;;;;;;;;;;;24.55;20.50;97262.44;5030230;28;19959;-82
2023/12/11 02:28:38;;;;;;;;;;;;;;;24.55;20.32;97257.59;5032087;28;20212;-82
2023/12/11 02:31:04;;;;;;;;;;;;;;;24.70;20.43;97260.66;5031361;28;19917;-82
2023/12/11 02:33:30;;;;;;;;;;;;;;;24.68;20.53;97263.94;5032267;28;19917;-82
2023/12/11 02:35:56;;;;;;;;;;;;;;;24.91;20.13;97248.66;5029572;28;19921;-82
2023/12/11 02:38:23;;;;;;;;;;;;;;;24.64;20.60;97246.44;5031308;28;20015;-82
2023/12/11 02:40:49;;;;;;;;;;;;;;;24.58;20.77;97230.63;5030428;28;20442;-82
2023/12/11 02:43:15;;;;;;;;;;;;;;;24.35;20.75;97217.88;5019442;28;19944;-82
2023/12/11 02:45:41;;;;;;;;;;;;;;;24.52;20.57;97219.25;5029859;28;20016;-82
2023/12/11 02:48:08;;;;;;;;;;;;;;;24.51;20.43;97211.25;5017340;28;20000;-82
2023/12/11 02:50:34;;;;;;;;;;;;;;;24.73;20.28;97209.22;5031050;28;19929;-81
2023/12/11 02:53:01;;;;;;;;;;;;;;;24.93;20.23;97200.44;5026976;28;19921;-82
2023/12/11 02:55:28;;;;;;;;;;;;;;;25.38;19.74;97204.22;5032048;28;20450;-82
2023/12/11 02:58:01;;;;;;;;;;;;;;;25.17;20.01;97212.72;5015794;28;19972;-82
2023/12/11 03:00:28;;;;;;;;;;;;;;;25.35;19.76;97207.97;5020887;28;20293;-82
2023/12/11 03:02:54;;;;;;;;;;;;;;;25.19;19.79;97199.78;5031001;28;19921;-82
2023/12/11 03:05:20;;;;;;;;;;;;;;;24.59;20.39;97199.31;5039816;28;19925;-82
2023/12/11 03:07:46;;;;;;;;;;;;;;;24.64;20.45;97195.13;5027289;28;19932;-82
2023/12/11 03:10:12;;;;;;;;;;;;;;;24.54;20.83;97190.72;5012372;28;19921;-82
2023/12/11 03:12:39;;;;;;;;;;;;;;;25.09;20.09;97186.94;5021506;28;19922;-82
2023/12/11 03:15:05;;;;;;;;;;;;;;;25.22;19.90;97190.44;5021692;28;19928;-82
2023/12/11 03:17:32;;;;;;;;;;;;;;;25.50;19.84;97194.16;5030559;28;20008;-82
2023/12/11 03:19:59;;;;;;;;;;;;;;;25.71;19.49;97187.63;5031198;28;19921;-82
2023/12/11 03:22:25;;;;;;;;;;;;;;;25.84;19.23;97196.69;5029549;28;19928;-82
2023/12/11 03:24:52;;;;;;;;;;;;;;;25.55;19.91;97187.91;5087224;28;19923;-82
2023/12/11 03:27:20;;;;;;;;;;;;;;;25.36;20.27;97184.25;5080091;28;19921;-82
2023/12/11 03:29:46;;;;;;;;;;;;;;;25.30;20.20;97185.31;5023191;28;19925;-82
2023/12/11 03:32:12;;;;;;;;;;;;;;;25.28;20.35;97184.97;5030261;28;20028;-82
2023/12/11 03:34:39;;;;;;;;;;;;;;;25.62;19.88;97176.38;5031031;28;20374;-82
2023/12/11 03:37:05;;;;;;;;;;;;;;;25.67;19.85;97181.34;5029820;28;19937;-82
2023/12/11 03:39:31;;;;;;;;;;;;;;;25.95;19.55;97193.44;5031349;28;19929;-82
2023/12/11 03:41:57;;;;;;;;;;;;;;;25.80;19.77;97178.41;5029666;28;20008;-82
2023/12/11 03:44:24;;;;;;;;;;;;;;;25.45;20.20;97172.28;5001153;28;19926;-81
2023/12/11 03:46:50;;;;;;;;;;;;;;;25.50;20.05;97170.88;5026782;28;19922;-81
2023/12/11 03:49:17;;;;;;;;;;;;;;;25.47;20.40;97180.22;5030641;28;20117;-82
2023/12/11 03:51:43;;;;;;;;;;;;;;;25.56;20.02;97163.38;5030407;28;19921;-81
2023/12/11 03:54:09;;;;;;;;;;;;;;;25.56;20.12;97149.31;5024579;28;19936;-81
2023/12/11 03:56:35;;;;;;;;;;;;;;;25.25;20.28;97150.16;5057938;28;20460;-81
2023/12/11 03:59:01;;;;;;;;;;;;;;;25.33;19.82;97151.44;5090603;28;19967;-81
2023/12/11 04:01:27;;;;;;;;;;;;;;;25.63;19.48;97152.63;5029727;28;19982;-81
2023/12/11 04:03:54;;;;;;;;;;;;;;;25.49;19.75;97146.81;5027600;28;20024;-81
2023/12/11 04:06:20;;;;;;;;;;;;;;;25.38;20.02;97141.63;5021618;28;19922;-81
2023/12/11 04:08:46;;;;;;;;;;;;;;;25.40;20.11;97133.50;5022687;28;19928;-81
2023/12/11 04:11:12;;;;;;;;;;;;;;;25.44;20.05;97131.34;5031088;28;20274;-81
2023/12/11 04:13:38;;;;;;;;;;;;;;;25.39;19.95;97135.53;5020466;28;19925;-81
2023/12/11 04:16:05;;;;;;;;;;;;;;;25.37;20.16;97123.97;5029570;28;20393;-81
2023/12/11 04:18:32;;;;;;;;;;;;;;;25.34;20.05;97115.69;5029216;28;19922;-81
2023/12/11 04:20:58;;;;;;;;;;;;;;;25.38;19.89;97114.31;5029966;28;19913;-81
2023/12/11 04:23:24;;;;;;;;;;;;;;;25.04;20.40;97111.72;5042383;28;19921;-81
2023/12/11 04:25:57;;;;;;;;;;;;;;;25.07;20.20;97104.38;5023369;28;19962;-81
2023/12/11 04:28:23;;;;;;;;;;;;;;;24.96;20.33;97106.84;5028881;28;20008;-81
2023/12/11 04:30:49;;;;;;;;;;;;;;;24.90;20.31;97103.88;5029735;28;20011;-81
2023/12/11 04:33:15;;;;;;;;;;;;;;;24.93;20.41;97102.94;5030327;28;19928;-81
2023/12/11 04:35:41;;;;;;;;;;;;;;;24.56;20.38;97096.38;5063144;28;20011;-81
2023/12/11 04:38:07;;;;;;;;;;;;;;;24.33;20.71;97096.13;5027375;28;20357;-81
2023/12/11 04:40:33;;;;;;;;;;;;;;;24.67;20.46;97079.13;5017164;28;20035;-81
2023/12/11 04:42:59;;;;;;;;;;;;;;;24.91;20.01;97074.56;5014735;28;19981;-81
2023/12/11 04:45:25;;;;;;;;;;;;;;;24.90;20.03;97072.97;5019041;28;19921;-81
2023/12/11 04:47:51;;;;;;;;;;;;;;;24.59;20.21;97066.63;5030053;28;20019;-81
2023/12/11 04:50:18;;;;;;;;;;;;;;;24.55;20.08;97051.97;5029809;28;19921;-81
2023/12/11 04:52:44;;;;;;;;;;;;;;;24.58;20.39;97028.56;5030296;28;19922;-81
2023/12/11 04:55:10;;;;;;;;;;;;;;;24.86;19.91;97024.63;5024601;28;19925;-81
2023/12/11 04:57:36;;;;;;;;;;;;;;;24.71;19.83;97018.03;5027016;28;20290;-81
2023/12/11 05:00:04;;;;;;;;;;;;;;;25.15;19.35;97018.59;5028133;28;19921;-81
2023/12/11 05:02:30;;;;;;;;;;;;;;;25.49;19.12;97014.72;5029726;28;19921;-81
2023/12/11 05:04:56;;;;;;;;;;;;;;;25.58;18.85;97001.44;5027038;28;20417;-81
2023/12/11 05:07:23;;;;;;;;;;;;;;;25.37;19.50;97003.13;5031472;28;20012;-82
2023/12/11 05:09:49;;;;;;;;;;;;;;;25.53;18.78;96993.66;5004992;28;20295;-84
2023/12/11 05:12:15;;;;;;;;;;;;;;;25.31;19.10;97004.22;5023017;28;19921;-83
2023/12/11 05:14:41;;;;;;;;;;;;;;;25.36;18.66;96995.97;5030524;28;20370;-84
2023/12/11 05:17:07;;;;;;;;;;;;;;;25.68;18.55;96990.97;5024324;28;20020;-84
2023/12/11 05:19:35;;;;;;;;;;;;;;;26.01;18.39;96994.63;5026220;28;20260;-84
2023/12/11 05:22:02;;;;;;;;;;;;;;;26.28;17.90;96994.56;5027533;28;20362;-83
2023/12/11 05:24:28;;;;;;;;;;;;;;;26.07;17.80;96992.72;5042866;28;19920;-83
2023/12/11 05:26:54;;;;;;;;;;;;;;;25.41;18.11;97003.75;5032576;28;19917;-83
2023/12/11 05:29:20;;;;;;;;;;;;;;;25.33;17.93;97027.03;5035757;28;19986;-83
2023/12/11 05:31:46;;;;;;;;;;;;;;;25.58;18.30;97028.78;5036372;28;19925;-84
2023/12/11 05:34:12;;;;;;;;;;;;;;;25.57;18.36;97032.84;5032269;28;19956;-83
2023/12/11 05:36:38;;;;;;;;;;;;;;;25.60;17.78;97035.47;5029916;28;20336;-82
2023/12/11 05:39:06;;;;;;;;;;;;;;;25.65;18.25;97040.47;5031623;28;19921;-83
2023/12/11 05:41:33;;;;;;;;;;;;;;;26.00;17.96;97043.69;5031295;28;20393;-83
2023/12/11 05:43:59;;;;;;;;;;;;;;;25.84;18.10;97050.44;5030557;28;19922;-84
2023/12/11 05:46:25;;;;;;;;;;;;;;;26.31;17.65;97041.47;5025053;28;20302;-79
2023/12/11 05:48:51;;;;;;;;;;;;;;;26.27;17.56;97052.13;5027678;28;19929;-82
2023/12/11 05:51:17;;;;;;;;;;;;;;;26.50;17.49;97047.81;5024855;28;19922;-81
2023/12/11 05:53:43;;;;;;;;;;;;;;;26.60;17.30;97044.50;5015200;28;20390;-81
2023/12/11 05:56:10;;;;;;;;;;;;;;;26.67;17.31;97046.97;5022080;28;19928;-81
2023/12/11 05:58:36;;;;;;;;;;;;;;;26.94;16.83;97042.47;5030979;28;19925;-82
2023/12/11 06:01:02;;;;;;;;;;;;;;;26.88;16.99;97047.19;5031659;28;19921;-82
2023/12/11 06:03:28;;;;;;;;;;;;;;;26.83;17.10;97039.41;5031045;28;19925;-82
2023/12/11 06:05:58;;;;;;;;;;;;;;;26.96;17.79;97040.72;5032873;28;20285;-82
2023/12/11 06:08:25;;;;;;;;;;;;;;;27.03;17.57;97036.75;5032722;28;20412;-82
2023/12/11 06:10:51;;;;;;;;;;;;;;;26.80;17.76;97031.88;5019936;28;19917;-82
2023/12/11 06:13:17;;;;;;;;;;;;;;;26.84;17.69;97032.53;5012920;28;20020;-82
2023/12/11 06:15:43;;;;;;;;;;;;;;;26.96;17.31;97026.63;5029049;28;19966;-81
2023/12/11 06:18:09;;;;;;;;;;;;;;;27.04;17.40;97024.25;5032031;28;19924;-81
2023/12/11 06:20:35;;;;;;;;;;;;;;;26.55;18.45;97024.66;5014280;28;19925;-81
2023/12/11 06:23:02;;;;;;;;;;;;;;;26.31;18.77;97024.59;5032442;28;19917;-82
2023/12/11 06:25:28;;;;;;;;;;;;;;;26.36;18.26;97026.75;5016053;28;19966;-82
2023/12/11 06:27:54;;;;;;;;;;;;;;;26.68;17.28;97030.81;5022939;28;20012;-81
2023/12/11 06:30:20;;;;;;;;;;;;;;;26.76;17.70;97025.66;5029816;28;19922;-82
2023/12/11 06:32:46;;;;;;;;;;;;;;;26.63;17.87;97023.03;5032741;28;19921;-81
2023/12/11 06:35:13;;;;;;;;;;;;;;;26.93;17.76;97030.44;5032121;28;20374;-81
2023/12/11 06:37:40;;;;;;;;;;;;;;;27.02;17.35;97038.03;5013461;28;19940;-82
2023/12/11 06:40:06;;;;;;;;;;;;;;;26.37;18.19;97041.63;5030153;28;19921;-82
2023/12/11 06:42:36;;;;;;;;;;;;;;;26.39;17.91;97048.34;5030357;28;20293;-82
2023/12/11 06:45:02;;;;;;;;;;;;;;;25.90;17.85;97061.88;5030837;28;19921;-82
2023/12/11 06:47:29;;;;;;;;;;;;;;;26.05;18.05;97057.91;5026798;28;19921;-82
2023/12/11 06:49:55;;;;;;;;;;;;;;;26.36;17.90;97059.75;5029606;28;20016;-82
2023/12/11 06:52:21;;;;;;;;;;;;;;;26.61;17.86;97059.34;5031187;28;19944;-82
2023/12/11 06:54:47;;;;;;;;;;;;;;;26.73;17.81;97059.13;5026947;28;19930;-82
2023/12/11 06:57:14;;;;;;;;;;;;;;;26.63;18.31;97054.00;5030647;28;19921;-81
2023/12/11 06:59:40;;;;;;;;;;;;;;;26.71;18.19;97044.75;5030569;28;19982;-83
2023/12/11 07:02:06;;;;;;;;;;;;;;;26.54;18.61;97049.19;5030528;28;19928;-85
2023/12/11 07:04:32;;;;;;;;;;;;;;;26.32;18.81;97054.28;5026912;28;19925;-81
2023/12/11 07:06:58;;;;;;;;;;;;;;;26.36;18.88;97048.47;5028091;28;19966;-81
2023/12/11 07:09:25;;;;;;;;;;;;;;;26.54;18.39;97043.56;5028691;28;19921;-81
2023/12/11 07:11:51;;;;;;;;;;;;;;;26.84;18.10;97055.81;5031918;28;19921;-81
2023/12/11 07:14:18;;;;;;;;;;;;;;;27.09;17.71;97051.78;5030683;28;19974;-81
2023/12/11 07:16:44;;;;;;;;;;;;;;;27.23;17.92;97056.69;5031426;28;19929;-81
2023/12/11 07:19:10;;;;;;;;;;;;;;;27.03;18.15;97059.31;5026924;28;19965;-81
2023/12/11 07:21:36;;;;;;;;;;;;;;;27.06;17.91;97055.53;5027842;28;19932;-81
2023/12/11 07:24:02;;;;;;;;;;;;;;;26.97;18.00;97067.66;5012123;28;20032;-81
2023/12/11 07:26:28;;;;;;;;;;;;;;;26.83;18.55;97061.94;5011067;28;19918;-81
2023/12/11 07:28:55;;;;;;;;;;;;;;;26.22;19.04;97068.84;5012295;28;19970;-81
2023/12/11 07:31:21;;;;;;;;;;;;;;;26.33;18.81;97066.31;5012219;28;20004;-81
2023/12/11 07:33:47;;;;;;;;;;;;;;;26.39;18.13;97065.22;5013919;28;19928;-81
2023/12/11 07:36:13;;;;;;;;;;;;;;;26.43;18.00;97073.47;5030573;28;20390;-81
2023/12/11 07:38:39;;;;;;;;;;;;;;;25.72;18.74;97078.75;5031440;28;20495;-81
2023/12/11 07:41:06;;;;;;;;;;;;;;;25.28;19.37;97073.38;5031923;28;20357;-81
2023/12/11 07:43:32;;;;;;;;;;;;;;;25.60;19.15;97071.25;5013877;28;20374;-81
2023/12/11 07:45:58;;;;;;;;;;;;;;;25.97;18.96;97075.59;5031485;28;20015;-81
2023/12/11 07:48:26;;;;;;;;;;;;;;;26.02;18.92;97075.72;5015021;28;20320;-81
2023/12/11 07:50:52;;;;;;;;;;;;;;;26.53;18.45;97069.38;5024093;28;19925;-80
2023/12/11 07:53:18;;;;;;;;;;;;;;;25.95;18.78;97076.06;5031093;28;19917;-81
2023/12/11 07:55:45;;;;;;;;;;;;;;;25.83;18.90;97070.63;5031402;28;19932;-80
2023/12/11 07:58:13;;;;;;;;;;;;;;;25.96;19.20;97069.19;5026605;28;19974;-80
2023/12/11 08:00:39;;;;;;;;;;;;;;;25.92;19.31;97062.16;5019914;28;19964;-81
2023/12/11 08:03:06;;;;;;;;;;;;;;;25.58;19.75;97066.09;5030873;28;19921;-80
2023/12/11 08:05:32;;;;;;;;;;;;;;;25.37;19.99;97067.78;5030653;28;20389;-80
2023/12/11 08:07:58;;;;;;;;;;;;;;;25.09;20.26;97068.97;5021168;28;19929;-80
2023/12/11 08:10:24;;;;;;;;;;;;;;;25.23;20.43;97062.75;5025327;27;20500;-80
2023/12/11 08:12:53;;;;;;;;;;;;;;;25.49;19.98;97063.28;5025558;28;19928;-80
2023/12/11 08:15:19;;;;;;;;;;;;;;;25.90;19.66;97067.50;5031002;28;19923;-80
2023/12/11 08:17:46;;;;;;;;;;;;;;;25.90;19.82;97057.03;5031106;28;20383;-80
2023/12/11 08:20:16;;;;;;;;;;;;;;;26.13;19.42;97054.81;5030682;28;20410;-80
2023/12/11 08:22:42;;;;;;;;;;;;;;;26.39;19.33;97053.19;5030778;28;19921;-80
2023/12/11 08:25:10;;;;;;;;;;;;;;;26.30;19.69;97047.59;5030372;28;19921;-80
2023/12/11 08:27:36;;;;;;;;;;;;;;;26.11;19.68;97046.06;5031077;28;19921;-80
2023/12/11 08:30:02;;;;;;;;;;;;;;;26.21;19.91;97039.16;5031005;28;19942;-80
2023/12/11 08:32:28;;;;;;;;;;;;;;;25.59;20.37;97030.31;5030760;28;19921;-80
2023/12/11 08:34:54;;;;;;;;;;;;;;;24.88;21.53;97027.75;5030579;28;20020;-81
2023/12/11 08:37:20;;;;;;;;;;;;;;;25.42;20.69;97038.25;5030280;28;19976;-80
2023/12/11 08:39:46;;;;;;;;;;;;;;;25.92;20.35;97034.03;5031016;28;19943;-80
2023/12/11 08:42:12;;;;;;;;;;;;;;;26.25;19.75;97029.31;5030840;28;19943;-80
2023/12/11 08:44:38;;;;;;;;;;;;;;;26.43;19.61;97031.25;5011380;28;20103;-80
2023/12/11 08:47:04;;;;;;;;;;;;;;;25.99;20.05;97039.34;5030958;28;20335;-80
2023/12/11 08:49:31;;;;;;;;;;;;;;;25.53;22.67;97035.81;5030357;28;20378;-81
2023/12/11 08:51:57;;;;;;;;;;;;;;;25.25;20.88;97037.03;5030571;28;19972;-81
2023/12/11 08:54:23;;;;;;;;;;;;;;;25.18;21.42;97043.69;5030496;28;19962;-81
2023/12/11 08:56:49;;;;;;;;;;;;;;;25.79;20.34;97047.50;5029710;28;20323;-81
2023/12/11 08:59:16;;;;;;;;;;;;;;;25.93;20.56;97039.19;5030524;28;19917;-81
2023/12/11 09:01:42;;;;;;;;;;;;;;;25.01;22.94;97050.88;5030452;28;19917;-81
2023/12/11 09:04:08;;;;;;;;;;;;;;;24.96;21.46;97050.69;5030648;28;19934;-78
2023/12/11 09:06:34;;;;;;;;;;;;;;;25.56;20.85;97059.38;5012525;28;19944;-81
2023/12/11 09:09:00;;;;;;;;;;;;;;;26.21;20.09;97041.97;5030237;28;19917;-81
2023/12/11 09:11:26;;;;;;;;;;;;;;;25.32;20.86;97039.53;5030225;28;19923;-82
2023/12/11 09:13:53;;;;;;;;;;;;;;;25.08;21.54;97036.53;5030526;28;19920;-82
2023/12/11 09:16:19;;;;;;;;;;;;;;;24.53;22.02;97038.38;5032959;28;19952;-82
2023/12/11 09:18:45;;;;;;;;;;;;;;;23.79;22.70;97027.22;5030129;28;19921;-81
2023/12/11 09:21:11;;;;;;;;;;;;;;;22.87;24.19;97040.09;5114798;28;19941;-82
2023/12/11 09:23:37;;;;;;;;;;;;;;;23.63;23.06;97040.66;5134228;28;19927;-82
2023/12/11 09:26:03;;;;;;;;;;;;;;;23.78;23.15;97038.91;5006838;28;20365;-81
2023/12/11 09:28:29;;;;;;;;;;;;;;;24.17;22.32;97041.03;5036520;28;20401;-81
2023/12/11 09:30:55;;;;;;;;;;;;;;;25.06;21.63;97035.44;5029487;28;20058;-81
2023/12/11 09:33:21;;;;;;;;;;;;;;;24.92;21.72;97030.41;5029973;28;19928;-81
2023/12/11 09:35:47;;;;;;;;;;;;;;;25.50;21.32;97021.91;5029767;28;19921;-82
2023/12/11 09:38:14;;;;;;;;;;;;;;;25.63;20.77;97022.50;5025620;28;20398;-82
2023/12/11 09:40:40;;;;;;;;;;;;;;;25.29;22.18;97023.59;5010304;28;19925;-82
2023/12/11 09:43:06;;;;;;;;;;;;;;;24.29;23.22;97028.16;5009856;28;19975;-82
2023/12/11 09:45:32;;;;;;;;;;;;;;;24.88;21.46;97012.94;5014321;28;19925;-82
2023/12/11 09:47:58;;;;;;;;;;;;;;;24.60;22.21;97017.66;5014668;28;19921;-82
2023/12/11 09:50:24;;;;;;;;;;;;;;;24.83;21.68;97013.56;5032357;28;20335;-82
2023/12/11 09:52:52;;;;;;;;;;;;;;;24.85;21.58;97006.22;5033251;28;19940;-82
2023/12/11 09:55:18;;;;;;;;;;;;;;;24.70;21.99;96991.97;5033232;28;20423;-82
2023/12/11 09:57:45;;;;;;;;;;;;;;;24.28;22.65;97004.91;5033158;28;19964;-82
2023/12/11 10:00:12;;;;;;;;;;;;;;;24.60;21.63;97001.59;5084541;28;19920;-82
2023/12/11 10:02:39;;;;;;;;;;;;;;;25.37;21.31;97005.94;5072677;28;19973;-82
2023/12/11 10:05:09;;;;;;;;;;;;;;;24.79;21.61;96996.06;5028182;28;19921;-82
2023/12/11 10:07:44;;;;;;;;;;;;;;;24.95;21.47;97007.78;5026300;28;19922;-82
2023/12/11 10:10:16;;;;;;;;;;;;;;;24.70;21.67;97005.22;5033066;28;19925;-82
2023/12/11 10:12:42;;;;;;;;;;;;;;;25.08;21.46;97002.81;5033315;28;20259;-82
2023/12/11 10:15:09;;;;;;;;;;;;;;;25.54;20.89;97000.81;5032765;28;19921;-82
2023/12/11 10:17:35;;;;;;;;;;;;;;;25.91;20.58;96996.69;5032945;28;19924;-83
2023/12/11 10:20:01;;;;;;;;;;;;;;;25.23;21.37;97009.38;5032807;28;19921;-82
2023/12/11 10:22:28;;;;;;;;;;;;;;;25.16;21.21;97004.06;5032646;28;19980;-82
2023/12/11 10:24:54;;;;;;;;;;;;;;;25.23;21.52;97006.56;5033041;28;19924;-82
2023/12/11 10:27:23;;;;;;;;;;;;;;;25.30;21.43;97008.28;5032047;28;19918;-82
2023/12/11 10:30:09;;;;;;;;;;;;;;;25.77;20.69;97002.97;5032609;28;19928;-83
2023/12/11 10:32:35;;;;;;;;;;;;;;;26.54;19.89;96995.72;5032704;28;19917;-83
2023/12/11 10:35:01;;;;;;;;;;;;;;;26.47;20.10;97007.31;5032627;28;19932;-83
2023/12/11 10:37:29;;;;;;;;;;;;;;;26.19;20.24;97008.66;5031982;28;19925;-82
2023/12/11 10:39:55;;;;;;;;;;;;;;;26.00;20.98;97010.72;5032138;28;19925;-83
2023/12/11 10:42:21;;;;;;;;;;;;;;;26.43;19.93;97003.91;5012806;28;20009;-83
2023/12/11 10:44:48;;;;;;;;;;;;;;;26.43;20.03;96995.44;5012690;28;20016;-83
2023/12/11 10:47:15;;;;;;;;;;;;;;;25.95;20.81;96997.31;5012792;28;19956;-82
2023/12/11 10:49:41;;;;;;;;;;;;;;;25.75;20.93;96993.44;5012745;28;19918;-82
2023/12/11 10:52:08;;;;;;;;;;;;;;;25.73;20.91;97004.38;5012724;28;19918;-83
2023/12/11 10:54:37;;;;;;;;;;;;;;;25.82;20.47;96995.94;5012616;28;19970;-83
2023/12/11 10:57:05;;;;;;;;;;;;;;;26.22;20.33;96998.50;5026544;28;19917;-83
2023/12/11 10:59:33;;;;;;;;;;;;;;;26.87;19.68;97000.56;5031172;28;20033;-83
2023/12/11 11:02:00;;;;;;;;;;;;;;;26.98;19.73;96995.94;5032008;28;19921;-82
2023/12/11 11:04:27;;;;;;;;;;;;;;;26.73;19.67;96988.72;5016097;28;19922;-83
2023/12/11 11:07:00;;;;;;;;;;;;;;;26.82;19.74;96987.13;4978587;28;19921;-83
2023/12/11 11:09:33;;;;;;;;;;;;;;;27.13;19.60;96987.56;5012612;28;19918;-83
2023/12/11 11:12:05;;;;;;;;;;;;;;;26.96;19.35;96980.78;5012644;28;20294;-84
2023/12/11 11:14:44;;;;;;;;;;;;;;;25.92;20.47;96981.38;5030271;28;20402;-83
2023/12/11 11:17:11;;;;;;;;;;;;;;;26.36;20.20;96981.72;5027252;28;19974;-83
2023/12/11 11:19:57;;;;;;;;;;;;;;;26.71;19.63;96979.97;5029812;28;20450;-82
2023/12/11 11:22:23;;;;;;;;;;;;;;;26.13;20.29;96974.00;5012246;28;19913;-83
2023/12/11 11:24:49;;;;;;;;;;;;;;;26.81;19.58;96977.91;5012323;28;19918;-83
2023/12/11 11:27:47;;;;;;;;;;;;;;;27.19;19.66;96972.31;5012462;28;19948;-83
2023/12/11 11:30:33;;;;;;;;;;;;;;;27.66;18.62;96973.50;4976274;28;19918;-84
2023/12/11 11:33:00;;;;;;;;;;;;;;;27.44;19.05;96968.22;5031765;28;19928;-83
2023/12/11 11:35:44;;;;;;;;;;;;;;;27.39;19.21;96975.31;5030911;28;19928;-83
2023/12/11 11:38:11;;;;;;;;;;;;;;;27.61;18.78;96972.13;5030262;28;20442;-83
2023/12/11 11:40:37;;;;;;;;;;;;;;;27.99;18.56;96966.44;5049336;28;20301;-83
2023/12/11 11:43:03;;;;;;;;;;;;;;;27.44;19.01;96973.09;5050098;28;19956;-83
2023/12/11 11:45:30;;;;;;;;;;;;;;;27.02;19.30;96971.22;5029585;28;19928;-82
2023/12/11 11:47:56;;;;;;;;;;;;;;;27.30;19.16;96968.94;5024878;28;19921;-82
2023/12/11 11:50:22;;;;;;;;;;;;;;;26.91;19.14;96976.59;5029342;28;19917;-83
2023/12/11 11:53:07;;;;;;;;;;;;;;;27.36;18.98;96967.78;5027001;28;19974;-82
2023/12/11 11:55:36;;;;;;;;;;;;;;;27.47;19.01;96984.16;5022566;28;20024;-82
2023/12/11 11:58:09;;;;;;;;;;;;;;;27.43;18.90;96980.75;5026937;28;19922;-82
2023/12/11 12:00:36;;;;;;;;;;;;;;;27.45;18.98;96980.25;5024949;28;19929;-82
2023/12/11 12:03:06;;;;;;;;;;;;;;;27.88;18.70;96980.34;5024758;28;19921;-83
2023/12/11 12:05:33;;;;;;;;;;;;;;;27.99;18.47;96977.72;5029043;28;19925;-83
2023/12/11 12:08:01;;;;;;;;;;;;;;;27.56;18.66;96978.47;5025650;28;20218;-87
2023/12/11 12:10:27;;;;;;;;;;;;;;;27.11;19.38;96973.16;5029013;28;20039;-83
2023/12/11 12:12:56;;;;;;;;;;;;;;;27.41;19.12;96969.19;5028246;28;19927;-87
2023/12/11 12:15:22;;;;;;;;;;;;;;;27.49;19.04;96967.56;5024176;28;20294;-87
2023/12/11 12:17:49;;;;;;;;;;;;;;;27.29;19.21;96951.25;5027831;28;19922;-87
2023/12/11 12:20:18;;;;;;;;;;;;;;;27.39;19.32;96957.63;5028810;28;19974;-86
2023/12/11 12:23:05;;;;;;;;;;;;;;;27.99;18.46;96957.97;5028141;28;19921;-87
2023/12/11 12:25:31;;;;;;;;;;;;;;;27.44;19.00;96950.53;5026805;28;19933;-86
2023/12/11 12:28:00;;;;;;;;;;;;;;;27.14;19.11;96950.41;5024115;28;19960;-87
2023/12/11 12:30:27;;;;;;;;;;;;;;;27.69;18.74;96959.22;5019224;28;19986;-86
2023/12/11 12:32:54;;;;;;;;;;;;;;;27.87;18.78;96961.84;5027073;28;19951;-85
2023/12/11 12:35:21;;;;;;;;;;;;;;;28.01;18.40;96957.47;5026568;28;19921;-87
2023/12/11 12:37:49;;;;;;;;;;;;;;;28.17;18.59;96954.13;5030417;28;20287;-87
2023/12/11 12:40:18;;;;;;;;;;;;;;;27.85;18.20;96955.91;5030644;28;19921;-86
2023/12/11 12:42:44;;;;;;;;;;;;;;;27.76;18.75;96950.34;5030309;28;19921;-86
2023/12/11 12:45:11;;;;;;;;;;;;;;;28.10;18.32;96951.72;5028610;28;19921;-86
2023/12/11 12:47:46;;;;;;;;;;;;;;;27.54;18.78;96949.19;5029196;28;20382;-87